Rain From: 21-07-2018 02:00 Until: 16:00 warning for: Rain Level: Yellow info button
suomi:
Sadevaroitus: Aamuyöstä alkaen voi sataa rankasti, yli 20 mm tunnissa.

svenska:
Nederbördsvarning: Från och med efternatten kan det förekomma synnerligen riklig nederbörd, mer än 20 mm i timmen.

english:
Heavy rain warning: From the early morning on heavy rain of more than 20 mm per hour can be expected. 

Forest fire From: 20-07-2018 23:00 Until: 21-07-2018 11:00 warning for: Forest fire Level: Yellow info button
suomi:
Metsäpalovaroitus on voimassa.

svenska:
Varning för skogsbrand gäller.

english:
A forest fire warning is in force. 


Thunder radar more information blitzortung!


Löydät sääaseman tiedot myös:

European Weather Network

Finland Weather Exchange

Weather Underground

AWEKAS



Weather Underground säähistoriasivu

Päivittäin yhteenveto Maaliskuu 7, 2017 Yksiköt:  Molemmat    Englantilaiset   Metriset
« Edellinen Päivä
Seuraava Päivä »
Päivittäin Viikoittain Kuukausittain Vuosittain Mukautettu
  Korkea: Matala: Keskiarvo:
Lämpötila: TemperatureC °F /  -17.8 °C -13.2 °F /  -25.1 °C -6.7 °F /  -21.5 °C
Kastepiste: DewpointC °F /  -17.8 °C -14.5 °F /  -25.8 °C -9.4 °F /  -23 °C
Kosteus: Humidity % 66 % 81 %
Tuulen nopeus: WindSpeedKMH mph /  0 km/h - 0.4 mph /  0.6 km/h
Tuulenpuuska: WindSpeedGustKMH mph /  0 km/h - -
Tuuli:- - SE
Ilmanpaine: PressurehPa in /  0 hPa 1017.8 in /  34462.7 hPa -
Sade: 0.0 in /  0 mm    
Historical Graphs
 
 
Taulukkotiedot Maaliskuu 7, 2017
Aika Lämpötila Kastepiste Ilmanpaine Tuuli Tuulen nopeus Tuulenpuuska Kosteus Sademäärä (tunneittain)
TemperatureC °F /  -17.8 °C DewpointC °F /  -17.8 °C PressurehPa in /  0 hPa Calm     Humidity % HourlyPrecipMM in /  0 mm
00:00 -10.9 °F /  -23.8 °C -12.0 °F /  -24.4 °C 1027.3 in /  34784.4 hPa Calm     92 % 0.0 in /  0 mm
00:15 -11.1 °F /  -23.9 °C -12.1 °F /  -24.5 °C 1027.3 in /  34784.4 hPa Calm     92 % 0.0 in /  0 mm
00:30 -11.0 °F /  -23.9 °C -12.0 °F /  -24.4 °C 1027.3 in /  34784.4 hPa Calm     92 % 0.0 in /  0 mm
00:45 -11.1 °F /  -23.9 °C -12.2 °F /  -24.6 °C 1027.7 in /  34797.9 hPa Calm     92 % 0.0 in /  0 mm
01:00 -11.4 °F /  -24.1 °C -12.6 °F /  -24.8 °C 1027.7 in /  34797.9 hPa Calm   3.2 mph /  5.1 km/h 91 % 0.0 in /  0 mm
01:15 -11.3 °F /  -24.1 °C -12.3 °F /  -24.6 °C 1027.7 in /  34797.9 hPa Calm     92 % 0.0 in /  0 mm
01:30 -11.4 °F /  -24.1 °C -12.6 °F /  -24.8 °C 1027.7 in /  34797.9 hPa Calm     91 % 0.0 in /  0 mm
01:45 -11.4 °F /  -24.1 °C -12.5 °F /  -24.7 °C 1027.7 in /  34797.9 hPa Calm     92 % 0.0 in /  0 mm
02:00 -11.3 °F /  -24.1 °C -12.3 °F /  -24.6 °C 1027.7 in /  34797.9 hPa Calm     92 % 0.0 in /  0 mm
02:15 -11.2 °F /  -24 °C -12.3 °F /  -24.6 °C 1027.7 in /  34797.9 hPa Calm     92 % 0.0 in /  0 mm
02:30 -11.5 °F /  -24.2 °C -12.7 °F /  -24.8 °C 1027.7 in /  34797.9 hPa Calm     91 % 0.0 in /  0 mm
02:45 -11.8 °F /  -24.3 °C -13.0 °F /  -25 °C 1027.7 in /  34797.9 hPa Calm     91 % 0.0 in /  0 mm
03:00 -11.9 °F /  -24.4 °C -13.0 °F /  -25 °C 1027.7 in /  34797.9 hPa Calm     92 % 0.0 in /  0 mm
03:15 -11.9 °F /  -24.4 °C -13.1 °F /  -25.1 °C 1027.3 in /  34784.4 hPa Calm     91 % 0.0 in /  0 mm
03:30 -12.2 °F /  -24.6 °C -13.5 °F /  -25.3 °C 1027.7 in /  34797.9 hPa Calm     90 % 0.0 in /  0 mm
03:45 -12.3 °F /  -24.6 °C -13.5 °F /  -25.3 °C 1027.3 in /  34784.4 hPa Calm     91 % 0.0 in /  0 mm
04:00 -12.3 °F /  -24.6 °C -13.4 °F /  -25.2 °C 1027.3 in /  34784.4 hPa Calm     91 % 0.0 in /  0 mm
04:15 -12.3 °F /  -24.6 °C -13.5 °F /  -25.3 °C 1027.3 in /  34784.4 hPa Calm   3.2 mph /  5.1 km/h 91 % 0.0 in /  0 mm
04:30 -12.5 °F /  -24.7 °C -13.7 °F /  -25.4 °C 1027.3 in /  34784.4 hPa Calm     91 % 0.0 in /  0 mm
04:45 -12.7 °F /  -24.8 °C -13.8 °F /  -25.4 °C 1027.3 in /  34784.4 hPa Calm     91 % 0.0 in /  0 mm
05:00 -12.8 °F /  -24.9 °C -14.1 °F /  -25.6 °C 1027.3 in /  34784.4 hPa Calm     90 % 0.0 in /  0 mm
05:15 -12.9 °F /  -24.9 °C -14.0 °F /  -25.6 °C 1027.3 in /  34784.4 hPa Calm     91 % 0.0 in /  0 mm
05:30 -13.0 °F /  -25 °C -14.3 °F /  -25.7 °C 1027.3 in /  34784.4 hPa Calm     90 % 0.0 in /  0 mm
05:45 -13.2 °F /  -25.1 °C -14.3 °F /  -25.7 °C 1027.3 in /  34784.4 hPa Calm     91 % 0.0 in /  0 mm
06:00 -13.2 °F /  -25.1 °C -14.3 °F /  -25.7 °C 1027.3 in /  34784.4 hPa Calm     91 % 0.0 in /  0 mm
06:15 -13.2 °F /  -25.1 °C -14.5 °F /  -25.8 °C 1027.3 in /  34784.4 hPa Calm   1.6 mph /  2.6 km/h 90 % 0.0 in /  0 mm
06:30 -13.1 °F /  -25.1 °C -14.3 °F /  -25.7 °C 1027.0 in /  34774.2 hPa Calm     91 % 0.0 in /  0 mm
06:45 -12.8 °F /  -24.9 °C -13.9 °F /  -25.5 °C 1027.0 in /  34774.2 hPa Calm     92 % 0.0 in /  0 mm
07:00 -12.9 °F /  -24.9 °C -14.2 °F /  -25.7 °C 1027.0 in /  34774.2 hPa Calm     90 % 0.0 in /  0 mm
07:15 -13.0 °F /  -25 °C -14.2 °F /  -25.7 °C 1027.0 in /  34774.2 hPa Calm   1.6 mph /  2.6 km/h 91 % 0.0 in /  0 mm
07:30 -12.9 °F /  -24.9 °C -14.0 °F /  -25.6 °C 1027.0 in /  34774.2 hPa Calm     91 % 0.0 in /  0 mm
07:45 -12.7 °F /  -24.8 °C -13.9 °F /  -25.5 °C 1027.0 in /  34774.2 hPa Calm     91 % 0.0 in /  0 mm
08:00 -12.6 °F /  -24.8 °C -13.7 °F /  -25.4 °C 1027.3 in /  34784.4 hPa Calm   1.6 mph /  2.6 km/h 91 % 0.0 in /  0 mm
08:15 -12.3 °F /  -24.6 °C -13.4 °F /  -25.2 °C 1027.3 in /  34784.4 hPa Calm   1.6 mph /  2.6 km/h 92 % 0.0 in /  0 mm
08:30 -12.0 °F /  -24.4 °C -13.0 °F /  -25 °C 1027.0 in /  34774.2 hPa Calm   1.6 mph /  2.6 km/h 92 % 0.0 in /  0 mm
08:45 -11.7 °F /  -24.3 °C -12.8 °F /  -24.9 °C 1027.0 in /  34774.2 hPa Calm     92 % 0.0 in /  0 mm
09:00 -11.4 °F /  -24.1 °C -12.5 °F /  -24.7 °C 1027.0 in /  34774.2 hPa Calm   1.6 mph /  2.6 km/h 92 % 0.0 in /  0 mm
09:15 -11.2 °F /  -24 °C -12.3 °F /  -24.6 °C 1027.0 in /  34774.2 hPa Calm     92 % 0.0 in /  0 mm
09:30 -10.9 °F /  -23.8 °C -12.0 °F /  -24.4 °C 1027.0 in /  34774.2 hPa Calm   1.6 mph /  2.6 km/h 92 % 0.0 in /  0 mm
09:45 -10.5 °F /  -23.6 °C -11.5 °F /  -24.2 °C 1026.6 in /  34760.7 hPa Calm     92 % 0.0 in /  0 mm
10:00 -10.1 °F /  -23.4 °C -11.0 °F /  -23.9 °C 1026.6 in /  34760.7 hPa Calm     93 % 0.0 in /  0 mm
10:15 -9.7 °F /  -23.2 °C -10.8 °F /  -23.8 °C 1026.3 in /  34750.5 hPa Calm   1.6 mph /  2.6 km/h 92 % 0.0 in /  0 mm
10:30 -9.1 °F /  -22.8 °C -10.0 °F /  -23.3 °C 1026.3 in /  34750.5 hPa Calm   1.6 mph /  2.6 km/h 93 % 0.0 in /  0 mm
10:45 -8.2 °F /  -22.3 °C -9.0 °F /  -22.8 °C 1026.0 in /  34740.4 hPa Calm   1.6 mph /  2.6 km/h 94 % 0.0 in /  0 mm
11:00 -7.5 °F /  -21.9 °C -8.4 °F /  -22.4 °C 1025.6 in /  34726.8 hPa Calm   3.2 mph /  5.1 km/h 93 % 0.0 in /  0 mm
11:15 -6.8 °F /  -21.6 °C -7.6 °F /  -22 °C 1025.6 in /  34726.8 hPa Calm   3.2 mph /  5.1 km/h 94 % 0.0 in /  0 mm
11:30 -6.1 °F /  -21.2 °C -7.1 °F /  -21.7 °C 1025.3 in /  34716.7 hPa Calm   3.2 mph /  5.1 km/h 93 % 0.0 in /  0 mm
11:45 -5.3 °F /  -20.7 °C -6.4 °F /  -21.3 °C 1025.3 in /  34716.7 hPa Calm   1.6 mph /  2.6 km/h 92 % 0.0 in /  0 mm
12:00 -4.4 °F /  -20.2 °C -6.1 °F /  -21.2 °C 1024.9 in /  34703.1 hPa Calm   4.8 mph /  7.7 km/h 88 % 0.0 in /  0 mm
12:15 -3.5 °F /  -19.7 °C -5.8 °F /  -21 °C 1024.9 in /  34703.1 hPa Calm   6.4 mph /  10.3 km/h 84 % 0.0 in /  0 mm
12:30 -2.9 °F /  -19.4 °C -6.1 °F /  -21.2 °C 1024.6 in /  34693 hPa Calm   4.8 mph /  7.7 km/h 79 % 0.0 in /  0 mm
12:45 -3.2 °F /  -19.6 °C -6.6 °F /  -21.4 °C 1024.3 in /  34682.8 hPa NNE 1.6 mph /  2.6 km/h 11.3 mph /  18.2 km/h 77 % 0.0 in /  0 mm
13:00 -2.8 °F /  -19.3 °C -6.3 °F /  -21.3 °C 1024.3 in /  34682.8 hPa Calm   3.2 mph /  5.1 km/h 77 % 0.0 in /  0 mm
13:15 -2.4 °F /  -19.1 °C -6.6 °F /  -21.4 °C 1024.3 in /  34682.8 hPa NNE 1.6 mph /  2.6 km/h 11.3 mph /  18.2 km/h 73 % 0.0 in /  0 mm
13:30 -2.1 °F /  -18.9 °C -6.3 °F /  -21.3 °C 1023.9 in /  34669.3 hPa Calm   4.8 mph /  7.7 km/h 73 % 0.0 in /  0 mm
13:45 -1.9 °F /  -18.8 °C -6.3 °F /  -21.3 °C 1023.9 in /  34669.3 hPa North 1.6 mph /  2.6 km/h 6.4 mph /  10.3 km/h 72 % 0.0 in /  0 mm
14:00 -1.6 °F /  -18.7 °C -6.4 °F /  -21.3 °C 1023.6 in /  34659.1 hPa North 1.6 mph /  2.6 km/h 12.9 mph /  20.8 km/h 70 % 0.0 in /  0 mm
14:15 -1.7 °F /  -18.7 °C -6.8 °F /  -21.6 °C 1023.2 in /  34645.6 hPa Calm   6.4 mph /  10.3 km/h 68 % 0.0 in /  0 mm
14:30 -1.8 °F /  -18.8 °C -6.9 °F /  -21.6 °C 1023.2 in /  34645.6 hPa ESE 1.6 mph /  2.6 km/h 6.4 mph /  10.3 km/h 68 % 0.0 in /  0 mm
14:45 -1.9 °F /  -18.8 °C -7.1 °F /  -21.7 °C 1022.9 in /  34635.4 hPa NNE 1.6 mph /  2.6 km/h 8.0 mph /  12.9 km/h 68 % 0.0 in /  0 mm
15:00 -1.9 °F /  -18.8 °C -6.6 °F /  -21.4 °C 1022.9 in /  34635.4 hPa Calm   4.8 mph /  7.7 km/h 70 % 0.0 in /  0 mm
15:15 -1.7 °F /  -18.7 °C -6.7 °F /  -21.5 °C 1022.6 in /  34625.2 hPa Calm   6.4 mph /  10.3 km/h 69 % 0.0 in /  0 mm
15:30 -1.6 °F /  -18.7 °C -6.6 °F /  -21.4 °C 1022.2 in /  34611.7 hPa Calm   4.8 mph /  7.7 km/h 69 % 0.0 in /  0 mm
15:45 -1.6 °F /  -18.7 °C -6.6 °F /  -21.4 °C 1021.9 in /  34601.5 hPa North 1.6 mph /  2.6 km/h 6.4 mph /  10.3 km/h 69 % 0.0 in /  0 mm
16:00 -1.4 °F /  -18.6 °C -6.4 °F /  -21.3 °C 1021.9 in /  34601.5 hPa NNE 1.6 mph /  2.6 km/h 8.0 mph /  12.9 km/h 69 % 0.0 in /  0 mm
16:15 -1.3 °F /  -18.5 °C -6.5 °F /  -21.4 °C 1021.6 in /  34591.4 hPa East 1.6 mph /  2.6 km/h 8.0 mph /  12.9 km/h 68 % 0.0 in /  0 mm
16:30 -1.5 °F /  -18.6 °C -7.0 °F /  -21.7 °C 1021.6 in /  34591.4 hPa NE 1.6 mph /  2.6 km/h 8.0 mph /  12.9 km/h 66 % 0.0 in /  0 mm
16:45 -1.6 °F /  -18.7 °C -6.3 °F /  -21.3 °C 1021.2 in /  34577.8 hPa Calm   3.2 mph /  5.1 km/h 70 % 0.0 in /  0 mm
17:00 -1.7 °F /  -18.7 °C -6.5 °F /  -21.4 °C 1021.2 in /  34577.8 hPa Calm   3.2 mph /  5.1 km/h 70 % 0.0 in /  0 mm
17:15 -1.8 °F /  -18.8 °C -6.8 °F /  -21.6 °C 1020.9 in /  34567.7 hPa Calm   4.8 mph /  7.7 km/h 69 % 0.0 in /  0 mm
17:30 -2.0 °F /  -18.9 °C -6.7 °F /  -21.5 °C 1020.9 in /  34567.7 hPa Calm   4.8 mph /  7.7 km/h 70 % 0.0 in /  0 mm
17:45 -2.0 °F /  -18.9 °C -6.9 °F /  -21.6 °C 1020.9 in /  34567.7 hPa North 1.6 mph /  2.6 km/h 6.4 mph /  10.3 km/h 69 % 0.0 in /  0 mm
18:00 -2.1 °F /  -18.9 °C -6.4 °F /  -21.3 °C 1020.5 in /  34554.1 hPa Calm   6.4 mph /  10.3 km/h 72 % 0.0 in /  0 mm
18:15 -2.1 °F /  -18.9 °C -6.4 °F /  -21.3 °C 1020.5 in /  34554.1 hPa Calm   3.2 mph /  5.1 km/h 72 % 0.0 in /  0 mm
18:30 -2.1 °F /  -18.9 °C -6.4 °F /  -21.3 °C 1020.5 in /  34554.1 hPa Calm   8.0 mph /  12.9 km/h 72 % 0.0 in /  0 mm
18:45 -2.1 °F /  -18.9 °C -6.3 °F /  -21.3 °C 1020.5 in /  34554.1 hPa WNW 1.6 mph /  2.6 km/h 11.3 mph /  18.2 km/h 73 % 0.0 in /  0 mm
19:00 -2.2 °F /  -19 °C -6.5 °F /  -21.4 °C 1020.2 in /  34544 hPa North 1.6 mph /  2.6 km/h 8.0 mph /  12.9 km/h 72 % 0.0 in /  0 mm
19:15 -2.2 °F /  -19 °C -6.2 °F /  -21.2 °C 1020.2 in /  34544 hPa Calm   1.6 mph /  2.6 km/h 74 % 0.0 in /  0 mm
19:30 -2.3 °F /  -19.1 °C -6.6 °F /  -21.4 °C 1020.2 in /  34544 hPa Calm   6.4 mph /  10.3 km/h 72 % 0.0 in /  0 mm
19:45 -2.3 °F /  -19.1 °C -6.8 °F /  -21.6 °C 1019.9 in /  34533.8 hPa NNE 1.6 mph /  2.6 km/h 11.3 mph /  18.2 km/h 71 % 0.0 in /  0 mm
20:00 -2.3 °F /  -19.1 °C -6.5 °F /  -21.4 °C 1019.9 in /  34533.8 hPa Calm   9.7 mph /  15.6 km/h 73 % 0.0 in /  0 mm
20:15 -2.4 °F /  -19.1 °C -6.8 °F /  -21.6 °C 1019.5 in /  34520.3 hPa West 1.6 mph /  2.6 km/h 8.0 mph /  12.9 km/h 72 % 0.0 in /  0 mm
20:30 -2.4 °F /  -19.1 °C -7.1 °F /  -21.7 °C 1019.5 in /  34520.3 hPa SSE 1.6 mph /  2.6 km/h 6.4 mph /  10.3 km/h 70 % 0.0 in /  0 mm
20:45 -2.4 °F /  -19.1 °C -6.9 °F /  -21.6 °C 1019.5 in /  34520.3 hPa NW 1.6 mph /  2.6 km/h 11.3 mph /  18.2 km/h 71 % 0.0 in /  0 mm
21:00 -2.6 °F /  -19.2 °C -6.9 °F /  -21.6 °C 1019.2 in /  34510.1 hPa South 1.6 mph /  2.6 km/h 9.7 mph /  15.6 km/h 72 % 0.0 in /  0 mm
21:15 -2.6 °F /  -19.2 °C -7.1 °F /  -21.7 °C 1019.2 in /  34510.1 hPa NW 1.6 mph /  2.6 km/h 9.7 mph /  15.6 km/h 71 % 0.0 in /  0 mm
21:30 -2.5 °F /  -19.2 °C -6.9 °F /  -21.6 °C 1018.8 in /  34496.6 hPa South 1.6 mph /  2.6 km/h 9.7 mph /  15.6 km/h 72 % 0.0 in /  0 mm
21:45 -2.4 °F /  -19.1 °C -7.0 °F /  -21.7 °C 1018.8 in /  34496.6 hPa North 1.6 mph /  2.6 km/h 9.7 mph /  15.6 km/h 71 % 0.0 in /  0 mm
22:00 -2.4 °F /  -19.1 °C -7.0 °F /  -21.7 °C 1018.5 in /  34486.4 hPa NNE 1.6 mph /  2.6 km/h 6.4 mph /  10.3 km/h 71 % 0.0 in /  0 mm
22:15 -2.4 °F /  -19.1 °C -6.8 °F /  -21.6 °C 1018.5 in /  34486.4 hPa SE 1.6 mph /  2.6 km/h 8.0 mph /  12.9 km/h 72 % 0.0 in /  0 mm
22:30 -2.6 °F /  -19.2 °C -6.7 °F /  -21.5 °C 1018.5 in /  34486.4 hPa NE 1.6 mph /  2.6 km/h 9.7 mph /  15.6 km/h 73 % 0.0 in /  0 mm
22:45 -2.7 °F /  -19.3 °C -6.7 °F /  -21.5 °C 1018.2 in /  34476.3 hPa Calm   8.0 mph /  12.9 km/h 74 % 0.0 in /  0 mm
23:00 -2.8 °F /  -19.3 °C -6.4 °F /  -21.3 °C 1018.2 in /  34476.3 hPa Calm   3.2 mph /  5.1 km/h 76 % 0.0 in /  0 mm
23:15 -2.8 °F /  -19.3 °C -6.4 °F /  -21.3 °C 1018.2 in /  34476.3 hPa Calm   8.0 mph /  12.9 km/h 76 % 0.0 in /  0 mm
23:30 -2.8 °F /  -19.3 °C -6.6 °F /  -21.4 °C 1017.8 in /  34462.7 hPa Calm   6.4 mph /  10.3 km/h 75 % 0.0 in /  0 mm
23:45 -2.8 °F /  -19.3 °C -6.3 °F /  -21.3 °C 1017.8 in /  34462.7 hPa Calm   6.4 mph /  10.3 km/h 77 % 0.0 in /  0 mm
Esan sääasema
Terveisin Weather Underground - 2.75 mb

Alkuperäinen skripti  Jim McMurry - jmcmurry@mwt.net Sovitettu myös templatelle  Wim van der Kuil - Leuven-Template.eu

Laitteet joita käytämme:

Sääasema
Davis VP2

Sääasemaohjelma
Cumulus

Sääaseman tietokone
Asus EeePC

Palveluntarjoaja
Suncomet

Davis VP2

Cumulus

Asus EeePC

Suncomet